createdAt,value
2022-12-22T00:01:56.644Z,6.23
2022-12-22T00:05:17.491Z,7.40
2022-12-22T00:08:38.015Z,9.20
2022-12-22T00:11:58.427Z,9.90
2022-12-22T00:15:18.780Z,7.23
2022-12-22T00:18:39.318Z,10.70
2022-12-22T00:21:59.858Z,7.27
2022-12-22T00:25:20.424Z,16.00
2022-12-22T00:28:40.772Z,9.00
2022-12-22T00:32:01.509Z,5.83
2022-12-22T00:35:21.882Z,7.63
2022-12-22T00:38:42.378Z,7.87
2022-12-22T00:42:02.964Z,7.93
2022-12-22T00:45:23.399Z,5.17
2022-12-22T00:48:45.521Z,7.97
2022-12-22T00:52:06.135Z,7.33
2022-12-22T00:55:35.413Z,8.97
2022-12-22T00:58:56.175Z,9.20
2022-12-22T01:02:16.683Z,7.03
2022-12-22T01:05:36.987Z,7.60
2022-12-22T01:08:57.514Z,7.60
2022-12-22T01:12:17.759Z,6.00
2022-12-22T01:15:39.305Z,6.90
2022-12-22T01:18:59.654Z,10.37
2022-12-22T01:22:20.811Z,10.40
2022-12-22T01:25:41.282Z,8.87
2022-12-22T01:29:01.435Z,10.20
2022-12-22T01:32:21.913Z,7.77
2022-12-22T01:35:45.780Z,9.30
2022-12-22T01:39:06.325Z,9.23
2022-12-22T01:42:30.526Z,8.07
2022-12-22T01:45:54.080Z,8.00
2022-12-22T01:49:14.611Z,7.67
2022-12-22T01:52:37.482Z,7.40
2022-12-22T01:55:57.915Z,6.73
2022-12-22T01:59:22.526Z,8.63
2022-12-22T02:02:44.765Z,8.73
2022-12-22T02:06:59.538Z,7.73
2022-12-22T02:10:32.174Z,7.93
2022-12-22T02:14:30.124Z,6.87
2022-12-22T02:18:01.384Z,7.07
2022-12-22T02:21:26.374Z,7.00
2022-12-22T02:24:46.819Z,10.00
2022-12-22T02:28:09.132Z,8.87
2022-12-22T02:31:29.660Z,6.80
2022-12-22T02:34:49.938Z,7.03
2022-12-22T02:38:21.021Z,7.30
2022-12-22T02:41:50.086Z,6.67
2022-12-22T02:45:53.030Z,8.17
2022-12-22T02:49:19.642Z,6.37
2022-12-22T02:52:55.296Z,5.47
2022-12-22T02:56:21.433Z,8.23
2022-12-22T02:59:42.249Z,7.63
2022-12-22T03:03:02.966Z,8.53
2022-12-22T03:06:23.545Z,7.60
2022-12-22T03:09:43.893Z,8.83
2022-12-22T03:13:04.264Z,8.60
2022-12-22T03:16:24.649Z,7.53
2022-12-22T03:19:45.019Z,8.77
2022-12-22T03:23:05.585Z,12.03
2022-12-22T03:26:07.305Z,7.50
2022-12-22T03:29:09.065Z,7.90
2022-12-22T03:32:10.823Z,6.20
2022-12-22T03:35:12.541Z,6.97
2022-12-22T03:38:14.261Z,7.93
2022-12-22T03:41:34.464Z,7.97
2022-12-22T03:44:55.034Z,11.87
2022-12-22T03:47:56.701Z,6.30
2022-12-22T03:50:58.419Z,7.23
2022-12-22T03:54:00.262Z,9.07
2022-12-22T03:57:02.065Z,5.23
2022-12-22T04:00:04.645Z,6.33
2022-12-22T04:03:14.293Z,7.07
2022-12-22T04:06:19.448Z,7.63
2022-12-22T04:09:22.339Z,7.53
2022-12-22T04:12:42.977Z,5.50
2022-12-22T04:15:44.708Z,4.10
2022-12-22T04:18:46.463Z,11.90
2022-12-22T04:21:48.146Z,7.10
2022-12-22T04:24:49.785Z,4.13
2022-12-22T04:27:51.587Z,4.17
2022-12-22T04:30:53.297Z,4.80
2022-12-22T04:33:55.098Z,4.10
2022-12-22T04:37:04.405Z,4.63
2022-12-22T04:40:11.787Z,4.40
2022-12-22T04:43:13.467Z,4.70
2022-12-22T04:46:15.285Z,3.00
2022-12-22T04:49:17.042Z,3.73
2022-12-22T04:52:18.778Z,5.53
2022-12-22T04:55:20.457Z,4.07
2022-12-22T04:58:22.371Z,6.93
2022-12-22T05:01:24.263Z,5.90
2022-12-22T05:04:26.151Z,7.73
2022-12-22T05:07:27.991Z,6.77
2022-12-22T05:10:30.644Z,8.47
2022-12-22T05:13:32.889Z,5.33
2022-12-22T05:16:34.708Z,9.70
2022-12-22T05:19:36.723Z,8.40
2022-12-22T05:22:38.507Z,6.93
2022-12-22T05:25:40.182Z,7.00
2022-12-22T05:28:43.514Z,14.73
2022-12-22T05:31:47.272Z,18.63
2022-12-22T05:34:49.351Z,8.93
2022-12-22T05:37:51.040Z,7.23
2022-12-22T05:40:55.653Z,12.10
2022-12-22T05:44:01.601Z,14.17
2022-12-22T05:47:03.347Z,18.30
2022-12-22T05:50:06.337Z,15.33
2022-12-22T05:53:08.626Z,6.40
2022-12-22T05:56:10.382Z,12.20
2022-12-22T05:59:12.335Z,7.33
2022-12-22T06:02:14.236Z,8.27
2022-12-22T06:05:16.162Z,7.57
2022-12-22T06:08:17.921Z,7.07
2022-12-22T06:11:19.791Z,5.77
2022-12-22T06:14:21.523Z,14.87
2022-12-22T06:17:23.469Z,6.80
2022-12-22T06:20:25.157Z,35.33
2022-12-22T06:23:26.876Z,20.13
2022-12-22T06:26:28.601Z,23.20
2022-12-22T06:29:30.319Z,10.83
2022-12-22T06:32:32.037Z,9.43
2022-12-22T06:35:33.704Z,6.37
2022-12-22T06:38:35.582Z,11.63
2022-12-22T06:41:55.951Z,8.53
2022-12-22T06:44:57.720Z,10.87
2022-12-22T06:47:59.443Z,14.40
2022-12-22T06:51:01.387Z,11.57
2022-12-22T06:54:03.355Z,10.37
2022-12-22T06:57:05.040Z,14.97
2022-12-22T07:00:07.756Z,14.80
2022-12-22T07:03:09.867Z,11.90
2022-12-22T07:06:11.796Z,11.87
2022-12-22T07:09:13.475Z,8.60
2022-12-22T07:12:15.129Z,8.30
2022-12-22T07:15:16.897Z,6.17
2022-12-22T07:18:18.620Z,7.30
2022-12-22T07:21:20.309Z,5.07
2022-12-22T07:24:25.701Z,7.47
2022-12-22T07:27:27.358Z,6.93
2022-12-22T07:30:29.304Z,13.87
2022-12-22T07:33:31.678Z,19.60
2022-12-22T07:36:33.453Z,16.20
2022-12-22T07:39:35.185Z,23.40
2022-12-22T07:42:45.696Z,28.60
2022-12-22T07:45:47.472Z,22.33
2022-12-22T07:49:07.956Z,23.97
2022-12-22T07:52:09.764Z,28.63
2022-12-22T07:55:11.482Z,21.27
2022-12-22T07:58:13.170Z,25.87
2022-12-22T08:01:14.893Z,25.33
2022-12-22T08:04:17.169Z,23.00
2022-12-22T08:07:18.896Z,28.00
2022-12-22T08:10:20.952Z,25.07
2022-12-22T08:13:22.711Z,27.40
2022-12-22T08:16:24.453Z,25.10
2022-12-22T08:19:26.238Z,33.37
2022-12-22T08:22:29.962Z,25.50
2022-12-22T08:25:33.850Z,27.67
2022-12-22T08:28:41.161Z,28.37
2022-12-22T08:31:43.858Z,27.10
2022-12-22T08:34:45.769Z,26.73
2022-12-22T08:37:48.525Z,26.43
2022-12-22T08:40:50.500Z,22.00
2022-12-22T08:43:52.254Z,25.90
2022-12-22T08:46:55.892Z,21.43
2022-12-22T08:49:57.681Z,27.33
2022-12-22T08:53:18.526Z,22.40
2022-12-22T08:56:30.270Z,23.33
2022-12-22T08:59:32.175Z,18.47
2022-12-22T09:02:34.416Z,19.23
2022-12-22T09:05:38.529Z,18.07
2022-12-22T09:08:40.177Z,15.40
2022-12-22T09:11:42.412Z,14.30
2022-12-22T09:14:44.230Z,17.50
2022-12-22T09:17:45.969Z,18.17
2022-12-22T09:20:47.697Z,18.23
2022-12-22T09:23:49.661Z,24.07
2022-12-22T09:26:51.486Z,17.80
2022-12-22T09:29:53.155Z,16.07
2022-12-22T09:32:55.250Z,22.93
2022-12-22T09:35:57.464Z,17.53
2022-12-22T09:39:10.968Z,21.27
2022-12-22T09:42:21.073Z,17.97
2022-12-22T09:45:22.909Z,22.13
2022-12-22T09:48:36.931Z,19.60
2022-12-22T09:51:49.302Z,20.60
2022-12-22T09:54:51.262Z,17.80
2022-12-22T09:57:56.705Z,20.93
2022-12-22T10:01:27.440Z,17.50
2022-12-22T10:04:45.880Z,22.93
2022-12-22T10:07:47.606Z,20.30
2022-12-22T10:10:53.778Z,18.90
2022-12-22T10:13:55.457Z,19.03
2022-12-22T10:17:17.318Z,20.27
2022-12-22T10:20:25.925Z,21.30
2022-12-22T10:23:30.558Z,19.47
2022-12-22T10:26:34.286Z,19.03
2022-12-22T10:29:36.372Z,15.53
2022-12-22T10:32:38.081Z,18.17
2022-12-22T10:35:53.048Z,17.37
2022-12-22T10:39:05.185Z,18.57
2022-12-22T10:42:16.376Z,19.00
2022-12-22T10:45:20.669Z,16.43
2022-12-22T10:48:34.173Z,16.77
2022-12-22T10:51:36.052Z,19.73
2022-12-22T10:54:38.141Z,16.67
2022-12-22T10:57:39.843Z,15.87
2022-12-22T11:00:41.975Z,15.70
2022-12-22T11:03:43.771Z,18.53
2022-12-22T11:06:45.838Z,14.47
2022-12-22T11:09:47.696Z,16.50
2022-12-22T11:13:38.851Z,17.47
2022-12-22T11:16:51.332Z,16.97
2022-12-22T11:20:24.506Z,16.67
2022-12-22T11:23:26.161Z,15.00
2022-12-22T11:26:39.531Z,16.60
2022-12-22T11:29:59.968Z,13.77
2022-12-22T11:33:20.354Z,17.53
2022-12-22T11:36:56.117Z,15.40
2022-12-22T11:40:12.835Z,11.70
2022-12-22T11:43:23.359Z,14.50
2022-12-22T11:46:51.975Z,13.70
2022-12-22T11:50:58.362Z,16.80
2022-12-22T11:54:16.834Z,13.47
2022-12-22T11:57:34.547Z,14.77
2022-12-22T12:01:15.064Z,15.33
2022-12-22T12:04:49.884Z,14.63
2022-12-22T12:07:57.228Z,12.47
2022-12-22T12:11:18.359Z,13.73
2022-12-22T12:14:31.906Z,13.30
2022-12-22T12:17:52.325Z,13.40
2022-12-22T12:21:28.939Z,11.20
2022-12-22T12:24:40.472Z,12.90
2022-12-22T12:28:04.537Z,14.80
2022-12-22T12:31:12.201Z,12.80
2022-12-22T12:34:16.880Z,13.10
2022-12-22T12:37:28.873Z,12.73
2022-12-22T12:40:53.712Z,14.03
2022-12-22T12:43:56.267Z,14.67
2022-12-22T12:47:07.254Z,13.80
2022-12-22T12:50:32.759Z,11.80
2022-12-22T12:53:34.537Z,11.43
2022-12-22T12:57:00.039Z,18.53
2022-12-22T13:00:02.132Z,13.37
2022-12-22T13:03:20.019Z,11.03
2022-12-22T13:06:49.905Z,14.10
2022-12-22T13:10:18.097Z,18.60
2022-12-22T13:13:25.831Z,14.43
2022-12-22T13:16:30.705Z,14.37
2022-12-22T13:19:32.724Z,12.23
2022-12-22T13:22:34.585Z,16.07
2022-12-22T13:25:49.369Z,19.07
2022-12-22T13:29:00.325Z,13.70
2022-12-22T13:32:22.297Z,12.63
2022-12-22T13:35:46.679Z,12.97
2022-12-22T13:39:02.545Z,16.60
2022-12-22T13:42:06.544Z,14.23
2022-12-22T13:45:33.922Z,16.90
2022-12-22T13:48:45.746Z,15.20
2022-12-22T13:51:48.032Z,20.40
2022-12-22T13:54:50.064Z,18.17
2022-12-22T13:57:58.469Z,14.33
2022-12-22T14:01:04.898Z,12.73
2022-12-22T14:04:12.091Z,17.77
2022-12-22T14:07:18.993Z,15.27
2022-12-22T14:10:31.906Z,15.70
2022-12-22T14:13:34.519Z,21.00
2022-12-22T14:16:42.988Z,26.80
2022-12-22T14:19:44.834Z,16.00
2022-12-22T14:22:51.295Z,21.27
2022-12-22T14:25:55.574Z,17.97
2022-12-22T14:28:58.403Z,19.03
2022-12-22T14:32:05.171Z,15.03
2022-12-22T14:35:22.096Z,21.20
2022-12-22T14:38:26.171Z,18.50
2022-12-22T14:41:42.020Z,15.87
2022-12-22T14:44:45.945Z,16.87
2022-12-22T14:47:47.724Z,16.50
2022-12-22T14:50:51.672Z,22.13
2022-12-22T14:53:56.595Z,15.03
2022-12-22T14:57:15.232Z,16.93
2022-12-22T15:00:24.225Z,16.23
2022-12-22T15:03:35.931Z,16.30
2022-12-22T15:06:41.175Z,20.80
2022-12-22T15:13:11.340Z,17.57
2022-12-22T15:16:16.856Z,16.87
2022-12-22T15:19:22.461Z,15.20
2022-12-22T15:22:25.469Z,16.17
2022-12-22T15:25:27.289Z,16.53
2022-12-22T15:28:29.030Z,13.20
2022-12-22T15:31:30.918Z,18.13
2022-12-22T15:34:32.874Z,13.33
2022-12-22T15:37:34.545Z,15.10
2022-12-22T15:40:37.394Z,18.63
2022-12-22T15:43:57.960Z,16.07
2022-12-22T15:47:00.577Z,15.97
2022-12-22T15:50:03.278Z,15.47
2022-12-22T15:53:06.226Z,15.13
2022-12-22T15:56:17.691Z,16.67
2022-12-22T15:59:23.497Z,19.77
2022-12-22T16:02:25.270Z,20.00
2022-12-22T16:05:27.091Z,17.03
2022-12-22T16:08:32.352Z,21.23
2022-12-22T16:11:34.024Z,21.93
2022-12-22T16:14:43.595Z,18.20
2022-12-22T16:17:51.603Z,19.80
2022-12-22T16:20:53.892Z,16.77
2022-12-22T16:23:56.881Z,19.10
2022-12-22T16:26:59.159Z,17.13
2022-12-22T16:30:01.176Z,20.43
2022-12-22T16:33:02.946Z,13.23
2022-12-22T16:36:04.816Z,15.73
2022-12-22T16:39:06.771Z,22.93
2022-12-22T16:45:38.104Z,14.50
2022-12-22T16:48:43.083Z,18.67
2022-12-22T16:51:51.515Z,20.43
2022-12-22T16:54:53.166Z,16.77
2022-12-22T16:57:55.059Z,18.17
2022-12-22T17:00:56.767Z,16.20
2022-12-22T17:04:02.607Z,14.57
2022-12-22T17:07:06.345Z,26.53
2022-12-22T17:10:15.298Z,17.30
2022-12-22T17:13:17.726Z,20.43
2022-12-22T17:16:21.802Z,17.07
2022-12-22T17:19:23.675Z,15.67
2022-12-22T17:22:27.125Z,17.60
2022-12-22T17:25:30.953Z,20.83
2022-12-22T17:28:33.631Z,22.00
2022-12-22T17:31:35.386Z,21.90
2022-12-22T17:34:37.196Z,19.30
2022-12-22T17:37:39.694Z,18.40
2022-12-22T17:40:41.567Z,20.73
2022-12-22T17:43:43.506Z,22.20
2022-12-22T17:46:45.316Z,20.63
2022-12-22T17:49:47.178Z,17.63
2022-12-22T17:52:49.438Z,18.60
2022-12-22T17:56:08.868Z,22.47
2022-12-22T17:59:12.111Z,19.67
2022-12-22T18:02:22.763Z,20.27
2022-12-22T18:05:27.777Z,49.73
2022-12-22T18:08:29.498Z,30.43
2022-12-22T18:11:31.228Z,40.03
2022-12-22T18:14:32.920Z,27.10
2022-12-22T18:17:36.158Z,27.13
2022-12-22T18:20:37.987Z,25.93
2022-12-22T18:23:43.229Z,24.73
2022-12-22T18:26:51.170Z,22.97
2022-12-22T18:29:52.897Z,25.03
2022-12-22T18:32:55.991Z,24.77
2022-12-22T18:35:59.100Z,22.93
2022-12-22T18:39:02.024Z,25.20
2022-12-22T18:42:10.226Z,22.63
2022-12-22T18:45:15.650Z,20.73
2022-12-22T18:48:17.333Z,22.63
2022-12-22T18:51:21.951Z,23.33
2022-12-22T18:54:32.385Z,19.90
2022-12-22T18:57:34.106Z,21.37
2022-12-22T19:00:37.076Z,22.13
2022-12-22T19:03:38.788Z,21.50
2022-12-22T19:06:40.443Z,17.60
2022-12-22T19:09:42.666Z,20.23
2022-12-22T19:12:47.791Z,14.27
2022-12-22T19:15:50.651Z,15.17
2022-12-22T19:18:52.444Z,15.83
2022-12-22T19:21:54.802Z,15.60
2022-12-22T19:24:58.885Z,14.23
2022-12-22T19:28:17.722Z,13.27
2022-12-22T19:31:24.569Z,16.23
2022-12-22T19:34:26.403Z,15.67
2022-12-22T19:37:28.068Z,14.90
2022-12-22T19:40:32.891Z,18.73
2022-12-22T19:43:34.653Z,14.97
2022-12-22T19:46:36.616Z,18.73
2022-12-22T19:49:38.422Z,16.17
2022-12-22T19:52:40.086Z,14.10
2022-12-22T19:55:45.377Z,14.77
2022-12-22T19:58:47.147Z,12.60
2022-12-22T20:01:48.920Z,10.33
2022-12-22T20:04:50.903Z,14.67
2022-12-22T20:07:55.453Z,13.77
2022-12-22T20:10:58.897Z,11.73
2022-12-22T20:14:01.083Z,16.73
2022-12-22T20:17:02.842Z,8.97
2022-12-22T20:20:05.167Z,10.47
2022-12-22T20:23:17.821Z,15.30
2022-12-22T20:26:22.597Z,14.73
2022-12-22T20:29:25.049Z,13.83
2022-12-22T20:32:28.346Z,13.83
2022-12-22T20:35:30.864Z,12.53
2022-12-22T20:38:41.320Z,12.13
2022-12-22T20:41:47.066Z,11.23
2022-12-22T20:45:02.685Z,16.70
2022-12-22T20:48:06.061Z,19.67
2022-12-22T20:51:12.866Z,11.63
2022-12-22T20:54:15.542Z,17.60
2022-12-22T20:57:17.500Z,20.73
2022-12-22T21:00:25.126Z,16.97
2022-12-22T21:03:27.768Z,12.63
2022-12-22T21:06:34.728Z,16.97
2022-12-22T21:09:36.769Z,15.10
2022-12-22T21:12:39.019Z,16.73
2022-12-22T21:15:42.019Z,11.67
2022-12-22T21:18:43.822Z,11.77
2022-12-22T21:21:46.012Z,13.47
2022-12-22T21:24:47.714Z,13.07
2022-12-22T21:27:51.518Z,15.57
2022-12-22T21:30:53.383Z,13.17
2022-12-22T21:33:55.176Z,16.43
2022-12-22T21:37:01.353Z,15.73
2022-12-22T21:40:03.445Z,22.47
2022-12-22T21:43:05.192Z,12.60
2022-12-22T21:46:10.383Z,13.73
2022-12-22T21:49:19.520Z,16.47
2022-12-22T21:52:21.203Z,18.10
2022-12-22T21:55:34.316Z,20.97
2022-12-22T21:58:36.096Z,11.90
2022-12-22T22:01:38.110Z,12.83
2022-12-22T22:04:39.814Z,17.03
2022-12-22T22:07:42.192Z,11.40
2022-12-22T22:10:44.232Z,12.10
2022-12-22T22:13:46.314Z,11.90
2022-12-22T22:16:48.388Z,15.83
2022-12-22T22:19:50.109Z,18.57
2022-12-22T22:22:53.132Z,13.40
2022-12-22T22:25:58.638Z,17.97
2022-12-22T22:29:00.361Z,15.23
2022-12-22T22:32:02.153Z,18.97
2022-12-22T22:35:04.988Z,17.00
2022-12-22T22:38:07.202Z,21.67
2022-12-22T22:41:09.054Z,25.03
2022-12-22T22:44:11.331Z,15.23
2022-12-22T22:47:13.215Z,15.03
2022-12-22T22:50:14.991Z,13.37
2022-12-22T22:53:16.867Z,23.03
2022-12-22T22:56:18.549Z,18.47
2022-12-22T22:59:20.391Z,21.60
2022-12-22T23:02:22.271Z,27.20
2022-12-22T23:05:24.280Z,14.03
2022-12-22T23:08:25.973Z,15.50
2022-12-22T23:11:27.699Z,17.63
2022-12-22T23:14:29.421Z,15.37
2022-12-22T23:17:31.119Z,18.70
2022-12-22T23:20:32.788Z,15.73
2022-12-22T23:23:34.960Z,21.83
2022-12-22T23:26:36.765Z,19.77
2022-12-22T23:29:38.970Z,21.33
2022-12-22T23:32:40.651Z,10.37
2022-12-22T23:35:45.144Z,22.47
2022-12-22T23:38:46.894Z,19.27
2022-12-22T23:41:48.633Z,15.57
2022-12-22T23:44:50.284Z,18.27
2022-12-22T23:47:51.946Z,17.60
2022-12-22T23:50:53.657Z,25.97
2022-12-22T23:53:56.603Z,21.53
2022-12-22T23:56:58.318Z,15.53
2022-12-22T23:59:59.977Z,13.33
